Time;durP1;ratioP1;P1;durP2;ratioP2;P2;SDS_P1;SDS_P2;PMS_P1;PMS_P2;Temp;Humidity;BMP_temperature;BMP_pressure;BME280_temperature;BME280_humidity;BME280_pressure;Samples;Min_cycle;Max_cycle;Signal;HPM_P1;HPM_P2
2024/01/28 00:01:24;;;;;;;154.02;139.38;;;23.70;64.20;;;;;;6151905;28;89334;-64
2024/01/28 00:04:26;;;;;;;149.85;135.52;;;23.80;64.40;;;;;;6147529;28;89036;-64
2024/01/28 00:07:28;;;;;;;142.98;129.27;;;23.70;64.40;;;;;;6157799;28;88425;-64
2024/01/28 00:10:31;;;;;;;142.30;128.50;;;23.70;64.30;;;;;;6151495;28;89281;-64
2024/01/28 00:13:34;;;;;;;136.65;123.50;;;23.70;64.30;;;;;;6149033;28;89194;-64
2024/01/28 00:16:36;;;;;;;135.27;122.47;;;23.70;64.30;;;;;;6144440;28;90441;-65
2024/01/28 00:19:38;;;;;;;134.32;121.15;;;23.70;64.20;;;;;;6132332;28;87911;-64
2024/01/28 00:22:40;;;;;;;127.70;115.57;;;23.70;64.40;;;;;;6138119;28;89050;-64
2024/01/28 00:25:44;;;;;;;125.25;113.35;;;23.70;64.40;;;;;;6145094;28;89221;-64
2024/01/28 00:28:46;;;;;;;121.47;109.97;;;23.70;64.30;;;;;;6136392;28;89117;-64
2024/01/28 00:31:48;;;;;;;119.85;108.40;;;23.60;64.20;;;;;;6145538;28;89006;-64
2024/01/28 00:34:50;;;;;;;119.22;107.80;;;23.60;64.20;;;;;;6147706;28;88103;-65
2024/01/28 00:37:54;;;;;;;116.00;104.95;;;23.70;64.20;;;;;;6148820;28;88424;-65
2024/01/28 00:40:58;;;;;;;113.65;102.72;;;23.60;64.20;;;;;;6148248;28;89360;-64
2024/01/28 00:44:01;;;;;;;110.22;99.50;;;23.60;64.20;;;;;;6148303;28;89487;-66
2024/01/28 00:47:03;;;;;;;107.63;97.47;;;23.70;64.20;;;;;;6143241;28;90213;-64
2024/01/28 00:50:06;;;;;;;106.45;96.32;;;23.60;64.10;;;;;;6146097;28;89137;-65
2024/01/28 00:53:08;;;;;;;103.35;93.57;;;23.60;64.20;;;;;;6141491;28;89259;-65
2024/01/28 00:56:16;;;;;;;100.57;90.93;;;23.60;64.20;;;;;;6142914;28;89072;-65
2024/01/28 00:59:18;;;;;;;97.93;88.78;;;23.60;64.20;;;;;;6143296;28;87966;-65
2024/01/28 01:02:19;;;;;;;97.03;87.68;;;23.60;64.20;;;;;;6152194;28;89094;-64
2024/01/28 01:05:22;;;;;;;93.30;84.47;;;23.60;64.20;;;;;;6142834;28;88139;-64
2024/01/28 01:08:24;;;;;;;92.97;84.20;;;23.50;64.20;;;;;;6148283;28;87248;-65
2024/01/28 01:11:27;;;;;;;90.45;81.85;;;23.60;64.20;;;;;;6142421;28;89089;-65
2024/01/28 01:14:30;;;;;;;88.15;79.78;;;23.50;64.00;;;;;;6156430;28;89072;-65
2024/01/28 01:17:31;;;;;;;84.97;76.97;;;23.60;64.20;;;;;;6150201;28;90065;-65
2024/01/28 01:20:34;;;;;;;83.63;75.53;;;23.50;64.30;;;;;;6156665;28;89132;-65
2024/01/28 01:23:36;;;;;;;82.30;74.05;;;23.50;64.20;;;;;;6163064;28;87951;-63
2024/01/28 01:26:39;;;;;;;80.03;72.28;;;23.50;64.20;;;;;;6149180;28;88288;-65
2024/01/28 01:29:41;;;;;;;80.53;72.82;;;23.50;64.40;;;;;;6159830;28;88064;-64
2024/01/28 01:32:43;;;;;;;76.97;69.38;;;23.50;64.40;;;;;;6159564;28;89229;-65
2024/01/28 01:35:45;;;;;;;76.82;69.32;;;23.50;64.20;;;;;;6153840;28;89289;-65
2024/01/28 01:38:47;;;;;;;72.40;65.28;;;23.50;64.20;;;;;;6157646;28;87239;-65
2024/01/28 01:41:50;;;;;;;72.22;65.15;;;23.50;64.20;;;;;;6151470;28;89138;-64
2024/01/28 01:44:52;;;;;;;67.97;61.33;;;23.50;64.20;;;;;;6158552;28;89896;-65
2024/01/28 01:47:55;;;;;;;69.10;62.35;;;23.40;64.10;;;;;;6148081;28;90013;-65
2024/01/28 01:50:57;;;;;;;68.50;61.88;;;23.40;64.20;;;;;;6161226;28;87987;-64
2024/01/28 01:54:00;;;;;;;64.90;58.53;;;23.40;64.20;;;;;;6159808;28;88348;-64
2024/01/28 01:57:04;;;;;;;64.03;57.72;;;23.40;64.10;;;;;;6156219;28;89173;-64
2024/01/28 02:00:07;;;;;;;63.17;57.00;;;23.40;64.00;;;;;;6156235;28;89143;-63
2024/01/28 02:03:09;;;;;;;66.35;59.90;;;23.40;64.00;;;;;;6140497;28;89062;-64
2024/01/28 02:06:14;;;;;;;65.18;58.83;;;23.40;64.30;;;;;;6144122;28;88629;-64
2024/01/28 02:09:16;;;;;;;63.30;57.10;;;23.40;64.80;;;;;;6144926;28;88439;-64
2024/01/28 02:12:19;;;;;;;64.35;57.97;;;23.40;64.40;;;;;;6152828;28;87783;-64
2024/01/28 02:15:21;;;;;;;60.50;54.55;;;23.40;64.40;;;;;;6157736;28;89230;-65
2024/01/28 02:18:23;;;;;;;60.45;54.65;;;23.40;64.40;;;;;;6153234;28;90102;-62
2024/01/28 02:21:26;;;;;;;59.20;53.22;;;23.30;64.30;;;;;;6156878;28;89179;-63
2024/01/28 02:24:29;;;;;;;56.08;50.58;;;23.30;64.30;;;;;;6156689;28;89140;-64
2024/01/28 02:27:31;;;;;;;56.50;51.00;;;23.40;64.40;;;;;;6145176;28;89380;-64
2024/01/28 02:30:35;;;;;;;55.55;50.20;;;23.30;64.20;;;;;;6145486;28;88545;-63
2024/01/28 02:33:37;;;;;;;54.38;49.08;;;23.30;64.30;;;;;;6146410;28;89133;-61
2024/01/28 02:36:39;;;;;;;52.92;47.72;;;23.30;65.00;;;;;;6151990;28;89369;-62
2024/01/28 02:39:43;;;;;;;51.45;46.53;;;23.30;65.00;;;;;;6154143;28;88629;-62
2024/01/28 02:42:45;;;;;;;50.28;45.47;;;23.40;65.20;;;;;;6157591;28;89339;-62
2024/01/28 02:45:47;;;;;;;50.85;45.70;;;23.40;65.00;;;;;;6140140;28;89151;-61
2024/01/28 02:48:49;;;;;;;48.17;43.55;;;23.30;65.20;;;;;;6147608;28;90067;-62
2024/01/28 02:51:51;;;;;;;48.53;43.83;;;23.30;65.20;;;;;;6152376;28;88855;-62
2024/01/28 02:54:55;;;;;;;49.67;44.97;;;23.30;65.40;;;;;;6156703;28;89845;-62
2024/01/28 02:57:57;;;;;;;49.30;44.40;;;23.30;65.40;;;;;;6167730;28;89071;-62
2024/01/28 03:00:59;;;;;;;50.22;45.45;;;23.30;65.10;;;;;;6144464;28;89130;-62
2024/01/28 03:04:01;;;;;;;45.15;40.95;;;23.40;65.40;;;;;;6148655;28;89043;-62
2024/01/28 03:07:03;;;;;;;44.00;39.90;;;23.70;64.40;;;;;;6150636;28;88988;-62
2024/01/28 03:10:08;;;;;;;43.00;38.90;;;23.90;63.50;;;;;;6152794;28;88596;-62
2024/01/28 03:13:10;;;;;;;43.15;39.00;;;24.00;63.00;;;;;;6155190;28;88731;-62
2024/01/28 03:16:12;;;;;;;41.47;37.53;;;24.10;62.80;;;;;;6151777;28;89407;-62
2024/01/28 03:19:14;;;;;;;39.28;35.60;;;24.10;62.50;;;;;;6155983;28;90051;-63
2024/01/28 03:22:16;;;;;;;38.13;34.42;;;24.10;62.30;;;;;;6158507;28;89044;-63
2024/01/28 03:25:20;;;;;;;37.10;33.60;;;24.10;63.20;;;;;;6153112;28;89275;-63
2024/01/28 03:28:22;;;;;;;37.00;33.50;;;24.00;62.20;;;;;;6146338;28;89337;-63
2024/01/28 03:31:24;;;;;;;34.38;31.20;;;24.00;62.30;;;;;;6148179;28;89316;-64
2024/01/28 03:34:26;;;;;;;35.10;31.77;;;24.00;62.40;;;;;;6156322;28;89303;-63
2024/01/28 03:37:28;;;;;;;34.70;31.40;;;24.00;62.50;;;;;;6146745;28;88263;-63
2024/01/28 03:40:31;;;;;;;34.55;31.25;;;23.90;62.50;;;;;;6147302;28;88335;-63
2024/01/28 03:43:33;;;;;;;33.40;30.23;;;23.80;62.60;;;;;;6144450;28;89017;-62
2024/01/28 03:46:37;;;;;;;31.77;28.77;;;23.80;62.70;;;;;;6157183;28;88041;-61
2024/01/28 03:49:39;;;;;;;31.42;28.42;;;23.70;62.80;;;;;;6154783;28;89085;-62
2024/01/28 03:52:42;;;;;;;31.08;28.17;;;23.70;63.00;;;;;;6144945;28;89431;-61
2024/01/28 03:55:45;;;;;;;31.08;28.08;;;23.60;63.00;;;;;;6149952;28;89718;-61
2024/01/28 03:58:47;;;;;;;29.92;27.02;;;23.60;63.10;;;;;;6156553;28;88008;-61
2024/01/28 04:01:49;;;;;;;30.17;27.38;;;23.60;63.20;;;;;;6153380;28;89386;-62
2024/01/28 04:04:51;;;;;;;29.70;26.83;;;23.60;63.30;;;;;;6152908;28;87973;-62
2024/01/28 04:07:53;;;;;;;28.58;25.80;;;23.50;63.30;;;;;;6166380;28;89054;-63
2024/01/28 04:10:57;;;;;;;28.30;25.60;;;23.50;63.30;;;;;;6154377;28;88485;-62
2024/01/28 04:13:59;;;;;;;27.17;24.67;;;23.40;63.30;;;;;;6155025;28;89043;-63
2024/01/28 04:17:01;;;;;;;26.73;24.23;;;23.40;63.30;;;;;;6142152;28;88015;-63
2024/01/28 04:20:03;;;;;;;26.58;24.05;;;23.40;63.30;;;;;;6137889;28;90742;-63
2024/01/28 04:23:05;;;;;;;25.98;23.35;;;23.40;63.40;;;;;;6148157;28;89151;-62
2024/01/28 04:26:10;;;;;;;24.60;22.27;;;23.40;63.40;;;;;;6142552;28;89110;-62
2024/01/28 04:29:12;;;;;;;24.95;22.55;;;23.30;63.30;;;;;;6145116;28;88776;-62
2024/01/28 04:32:14;;;;;;;24.50;22.17;;;23.30;63.40;;;;;;6149086;28;89065;-62
2024/01/28 04:35:16;;;;;;;22.42;20.10;;;23.30;63.40;;;;;;6146788;28;89141;-62
2024/01/28 04:38:18;;;;;;;23.23;21.02;;;23.30;63.50;;;;;;6148105;28;89100;-62
2024/01/28 04:41:21;;;;;;;22.83;20.63;;;23.30;63.50;;;;;;6150069;28;86361;-63
2024/01/28 04:44:23;;;;;;;22.10;19.92;;;23.20;63.40;;;;;;6146954;28;89130;-62
2024/01/28 04:47:26;;;;;;;22.33;20.02;;;23.30;63.60;;;;;;6154383;28;89407;-62
2024/01/28 04:50:28;;;;;;;21.60;19.45;;;23.30;63.70;;;;;;6146723;28;91585;-61
2024/01/28 04:53:30;;;;;;;21.58;19.48;;;23.20;63.70;;;;;;6151927;28;88727;-62
2024/01/28 04:56:33;;;;;;;20.88;18.88;;;23.30;63.70;;;;;;6152881;28;88013;-62
2024/01/28 04:59:35;;;;;;;20.02;18.15;;;23.20;63.70;;;;;;6142867;28;89094;-62
2024/01/28 05:02:37;;;;;;;20.65;18.55;;;23.20;63.70;;;;;;6148898;28;89053;-62
2024/01/28 05:05:39;;;;;;;20.42;18.38;;;23.20;63.80;;;;;;6153291;28;88045;-62
2024/01/28 05:08:41;;;;;;;20.33;18.40;;;23.20;63.70;;;;;;6159889;28;89088;-62
2024/01/28 05:11:45;;;;;;;18.30;16.60;;;23.20;64.70;;;;;;6150793;28;88264;-62
2024/01/28 05:14:47;;;;;;;18.83;16.92;;;23.20;63.70;;;;;;6139136;28;87934;-62
2024/01/28 05:17:50;;;;;;;19.17;17.33;;;23.20;63.70;;;;;;6152208;28;89065;-62
2024/01/28 05:20:52;;;;;;;17.42;15.73;;;23.20;63.80;;;;;;6149896;28;89950;-62
2024/01/28 05:23:53;;;;;;;17.73;16.02;;;23.20;63.70;;;;;;6155478;28;89070;-62
2024/01/28 05:26:57;;;;;;;16.45;14.85;;;23.20;63.70;;;;;;6155741;28;87962;-62
2024/01/28 05:29:59;;;;;;;16.67;14.93;;;23.20;63.70;;;;;;6154114;28;89211;-62
2024/01/28 05:33:01;;;;;;;16.95;15.35;;;23.30;63.80;;;;;;6154042;28;89388;-63
2024/01/28 05:36:10;;;;;;;16.85;15.25;;;23.30;63.70;;;;;;6152245;28;89337;-63
2024/01/28 05:39:13;;;;;;;15.93;14.35;;;23.20;63.60;;;;;;6148504;28;89425;-63
2024/01/28 05:42:16;;;;;;;16.35;14.68;;;23.30;63.70;;;;;;6151942;28;88430;-62
2024/01/28 05:45:18;;;;;;;16.23;14.60;;;23.30;63.70;;;;;;6144710;28;89171;-63
2024/01/28 05:48:20;;;;;;;16.02;14.43;;;23.30;63.60;;;;;;6145551;28;89323;-62
2024/01/28 05:51:22;;;;;;;15.55;14.05;;;23.30;63.60;;;;;;6153469;28;90026;-62
2024/01/28 05:54:25;;;;;;;15.88;14.27;;;23.30;63.60;;;;;;6151900;28;87980;-62
2024/01/28 05:57:28;;;;;;;15.50;13.90;;;23.30;63.50;;;;;;6145146;28;89233;-62
2024/01/28 06:00:30;;;;;;;14.85;13.38;;;23.40;63.50;;;;;;6153828;28;88999;-61
2024/01/28 06:03:33;;;;;;;14.50;13.10;;;23.40;63.50;;;;;;6148612;28;89333;-62
2024/01/28 06:06:35;;;;;;;14.50;13.15;;;23.30;63.40;;;;;;6149161;28;89059;-62
2024/01/28 06:09:37;;;;;;;14.07;12.65;;;23.40;63.50;;;;;;6158240;28;87913;-62
2024/01/28 06:12:40;;;;;;;14.32;12.93;;;23.40;64.30;;;;;;6152674;28;88447;-62
2024/01/28 06:15:42;;;;;;;14.27;12.95;;;23.40;63.40;;;;;;6154468;28;89016;-62
2024/01/28 06:18:44;;;;;;;14.10;12.75;;;23.40;63.40;;;;;;6158249;28;89209;-62
2024/01/28 06:21:46;;;;;;;13.73;12.40;;;23.40;63.30;;;;;;6154045;28;90284;-63
2024/01/28 06:24:48;;;;;;;12.90;11.70;;;23.40;63.30;;;;;;6154381;28;89081;-63
2024/01/28 06:27:52;;;;;;;14.18;12.77;;;23.40;63.30;;;;;;6150001;28;88220;-60
2024/01/28 06:30:54;;;;;;;14.65;12.85;;;23.40;63.30;;;;;;6144157;28;89120;-60
2024/01/28 06:33:56;;;;;;;13.25;11.77;;;23.40;63.30;;;;;;6152358;28;89130;-61
2024/01/28 06:36:58;;;;;;;13.57;12.15;;;23.40;63.30;;;;;;6153698;28;87956;-60
2024/01/28 06:40:01;;;;;;;12.10;10.98;;;23.50;63.30;;;;;;6152096;28;91223;-61
2024/01/28 06:43:04;;;;;;;13.32;11.73;;;23.50;63.30;;;;;;6151139;28;88354;-60
2024/01/28 06:46:06;;;;;;;12.55;11.25;;;23.50;63.30;;;;;;6150688;28;87987;-61
2024/01/28 06:49:08;;;;;;;12.73;11.43;;;23.50;63.30;;;;;;6144504;28;89381;-61
2024/01/28 06:52:11;;;;;;;11.80;10.65;;;23.50;63.20;;;;;;6155357;28;90257;-61
2024/01/28 06:55:13;;;;;;;11.90;10.73;;;23.50;63.30;;;;;;6153124;28;89083;-60
2024/01/28 06:58:17;;;;;;;13.88;11.98;;;23.60;63.30;;;;;;6150248;28;89131;-63
2024/01/28 07:01:19;;;;;;;12.60;11.32;;;23.60;63.20;;;;;;6146957;28;89433;-61
2024/01/28 07:04:21;;;;;;;11.55;10.45;;;23.60;63.20;;;;;;6152131;28;89132;-61
2024/01/28 07:07:23;;;;;;;12.20;10.93;;;23.50;63.20;;;;;;6154357;28;89147;-61
2024/01/28 07:10:25;;;;;;;11.73;10.52;;;23.60;63.20;;;;;;6157772;28;89024;-61
2024/01/28 07:13:29;;;;;;;11.75;10.20;;;23.60;63.00;;;;;;6154871;28;88509;-61
2024/01/28 07:16:32;;;;;;;12.13;10.63;;;23.60;62.80;;;;;;6155404;28;89100;-61
2024/01/28 07:19:35;;;;;;;12.20;10.90;;;23.60;62.80;;;;;;6157824;28;89202;-62
2024/01/28 07:22:37;;;;;;;10.63;9.60;;;23.60;63.70;;;;;;6145838;28;90139;-61
2024/01/28 07:25:39;;;;;;;12.27;10.95;;;23.60;62.80;;;;;;6153141;28;89093;-61
2024/01/28 07:28:42;;;;;;;11.23;10.13;;;23.60;62.80;;;;;;6152789;28;89100;-61
2024/01/28 07:31:44;;;;;;;10.40;9.40;;;23.60;62.80;;;;;;6152330;28;88741;-61
2024/01/28 07:34:46;;;;;;;10.68;9.57;;;23.60;62.90;;;;;;6150650;28;89052;-61
2024/01/28 07:37:49;;;;;;;10.35;9.35;;;23.60;62.80;;;;;;6156786;28;89391;-61
2024/01/28 07:40:51;;;;;;;10.48;9.40;;;23.60;62.80;;;;;;6148416;28;88218;-62
2024/01/28 07:43:54;;;;;;;9.93;9.00;;;23.60;62.80;;;;;;6149185;28;88377;-61
2024/01/28 07:46:56;;;;;;;10.35;9.35;;;23.60;62.80;;;;;;6147103;28;88097;-61
2024/01/28 07:49:59;;;;;;;9.73;8.43;;;23.60;62.90;;;;;;6148122;28;87905;-62
2024/01/28 07:53:01;;;;;;;10.43;9.32;;;23.60;62.90;;;;;;6150608;28;89998;-61
2024/01/28 07:56:03;;;;;;;9.73;8.77;;;23.60;62.90;;;;;;6157916;28;87619;-61
2024/01/28 07:59:06;;;;;;;10.15;9.15;;;23.60;62.90;;;;;;6160537;28;87959;-61
2024/01/28 08:02:08;;;;;;;10.00;8.90;;;23.70;63.00;;;;;;6149162;28;89318;-61
2024/01/28 08:05:10;;;;;;;9.52;8.60;;;23.70;63.00;;;;;;6141518;28;89030;-62
2024/01/28 08:08:12;;;;;;;9.35;8.25;;;23.70;63.00;;;;;;6154913;28;89102;-61
2024/01/28 08:11:14;;;;;;;9.85;8.75;;;23.70;63.10;;;;;;6153032;28;89093;-62
2024/01/28 08:14:18;;;;;;;9.70;8.70;;;23.70;63.10;;;;;;6149626;28;88681;-61
2024/01/28 08:17:20;;;;;;;9.68;8.57;;;23.70;63.10;;;;;;6152158;28;89356;-61
2024/01/28 08:20:22;;;;;;;9.65;8.20;;;23.70;63.20;;;;;;6153375;28;89196;-62
2024/01/28 08:23:25;;;;;;;8.98;8.07;;;23.70;63.10;;;;;;6163534;28;88915;-62
2024/01/28 08:26:27;;;;;;;8.98;8.07;;;23.70;63.20;;;;;;6154944;28;89174;-62
2024/01/28 08:29:31;;;;;;;8.77;7.90;;;23.80;63.20;;;;;;6144740;28;87877;-61
2024/01/28 08:32:33;;;;;;;8.50;7.70;;;23.80;63.20;;;;;;6145759;28;89118;-62
2024/01/28 08:35:36;;;;;;;9.35;8.05;;;23.80;63.20;;;;;;6145478;28;88005;-61
2024/01/28 08:38:38;;;;;;;8.60;7.70;;;23.80;63.30;;;;;;6147086;28;89121;-61
2024/01/28 08:41:40;;;;;;;8.60;7.80;;;23.80;63.30;;;;;;6149822;28;89495;-62
2024/01/28 08:44:43;;;;;;;8.27;7.47;;;23.80;63.30;;;;;;6150843;28;88309;-61
2024/01/28 08:47:45;;;;;;;8.35;7.40;;;23.90;63.40;;;;;;6151570;28;89182;-62
2024/01/28 08:50:48;;;;;;;8.48;7.30;;;23.90;63.40;;;;;;6151460;28;89222;-61
2024/01/28 08:53:50;;;;;;;8.38;7.47;;;23.80;63.30;;;;;;6141680;28;90010;-62
2024/01/28 08:56:52;;;;;;;8.18;7.35;;;23.90;63.50;;;;;;6142552;28;89516;-62
2024/01/28 08:59:56;;;;;;;7.88;7.07;;;23.90;63.50;;;;;;6151480;28;89195;-62
2024/01/28 09:02:58;;;;;;;7.43;6.63;;;23.90;63.50;;;;;;6147608;28;89049;-61
2024/01/28 09:06:00;;;;;;;7.50;6.80;;;23.90;63.50;;;;;;6152894;28;89424;-62
2024/01/28 09:09:07;;;;;;;8.88;7.93;;;23.90;63.60;;;;;;6154968;28;89277;-62
2024/01/28 09:12:09;;;;;;;7.28;6.57;;;23.90;63.60;;;;;;6141300;28;89329;-61
2024/01/28 09:15:13;;;;;;;7.43;6.72;;;23.90;63.60;;;;;;6154673;28;88381;-62
2024/01/28 09:18:15;;;;;;;9.73;7.25;;;23.90;63.60;;;;;;6154566;28;89076;-62
2024/01/28 09:21:17;;;;;;;7.45;6.65;;;23.90;63.70;;;;;;6152634;28;89069;-62
2024/01/28 09:24:19;;;;;;;7.18;6.47;;;23.90;63.70;;;;;;6151592;28;90347;-62
2024/01/28 09:27:23;;;;;;;7.65;6.47;;;23.90;63.70;;;;;;6145757;28;89233;-62
2024/01/28 09:30:26;;;;;;;7.15;6.40;;;24.00;63.80;;;;;;6138928;28;87919;-61
2024/01/28 09:33:28;;;;;;;6.60;6.00;;;24.00;63.70;;;;;;6141322;28;90734;-62
2024/01/28 09:36:30;;;;;;;8.50;6.53;;;24.00;63.80;;;;;;6156921;28;89097;-62
2024/01/28 09:39:32;;;;;;;6.63;6.03;;;24.00;63.70;;;;;;6153873;28;89079;-62
2024/01/28 09:42:40;;;;;;;6.82;6.10;;;24.00;63.70;;;;;;6153795;28;88951;-63
2024/01/28 09:45:43;;;;;;;6.95;6.25;;;24.00;63.70;;;;;;6153014;28;88677;-62
2024/01/28 09:48:47;;;;;;;6.85;6.15;;;24.00;63.80;;;;;;6151112;28;89018;-62
2024/01/28 09:51:49;;;;;;;7.00;6.03;;;24.00;63.80;;;;;;6160411;28;89401;-62
2024/01/28 09:54:51;;;;;;;6.35;5.72;;;24.00;63.80;;;;;;6150280;28;90100;-62
2024/01/28 09:57:53;;;;;;;6.22;5.60;;;24.00;63.80;;;;;;6155195;28;88205;-62
2024/01/28 10:00:56;;;;;;;6.22;5.60;;;24.00;63.80;;;;;;6160712;28;89176;-62
2024/01/28 10:04:00;;;;;;;5.93;5.43;;;24.00;63.80;;;;;;6147419;28;89153;-62
2024/01/28 10:07:03;;;;;;;6.00;5.18;;;24.10;63.80;;;;;;6154705;28;89053;-62
2024/01/28 10:10:06;;;;;;;6.35;5.70;;;24.10;63.80;;;;;;6145811;28;89056;-62
2024/01/28 10:13:08;;;;;;;6.93;5.85;;;24.10;63.80;;;;;;6140767;28;89338;-62
2024/01/28 10:16:12;;;;;;;7.50;6.32;;;24.10;63.90;;;;;;6158777;28;88412;-61
2024/01/28 10:19:14;;;;;;;7.47;6.28;;;24.10;63.80;;;;;;6148916;28;89093;-62
2024/01/28 10:22:16;;;;;;;6.03;5.43;;;24.10;63.80;;;;;;6146755;28;89420;-62
2024/01/28 10:25:19;;;;;;;6.63;5.97;;;24.10;63.90;;;;;;6157134;28;89947;-62
2024/01/28 10:28:21;;;;;;;5.97;5.38;;;24.10;63.80;;;;;;6148368;28;89032;-62
2024/01/28 10:31:25;;;;;;;6.10;5.50;;;24.10;63.90;;;;;;6139050;28;89028;-62
2024/01/28 10:34:26;;;;;;;6.43;5.80;;;24.10;63.90;;;;;;6144135;28;89114;-62
2024/01/28 10:37:30;;;;;;;6.40;5.80;;;24.10;63.90;;;;;;6151016;28;89082;-62
2024/01/28 10:40:34;;;;;;;6.72;5.88;;;24.10;63.90;;;;;;6144764;28;89011;-61
2024/01/28 10:43:39;;;;;;;6.72;6.03;;;24.10;64.80;;;;;;6147904;28;88068;-62
2024/01/28 10:46:44;;;;;;;7.18;6.30;;;24.20;64.00;;;;;;6148913;28;87218;-62
2024/01/28 10:49:51;;;;;;;6.60;5.90;;;24.10;63.80;;;;;;6143399;28;89383;-62
2024/01/28 10:52:54;;;;;;;8.40;6.38;;;24.10;63.80;;;;;;6155648;28;88976;-62
2024/01/28 10:55:57;;;;;;;7.15;6.43;;;24.10;63.80;;;;;;6157254;28;88901;-62
2024/01/28 10:58:59;;;;;;;7.57;6.78;;;24.20;63.80;;;;;;6145659;28;87961;-62
2024/01/28 11:02:02;;;;;;;6.85;6.25;;;24.20;63.80;;;;;;6149163;28;89100;-62
2024/01/28 11:05:05;;;;;;;7.00;6.30;;;24.20;63.80;;;;;;6147803;28;90273;-62
2024/01/28 11:08:08;;;;;;;7.47;6.78;;;24.20;63.90;;;;;;6151436;28;90129;-62
2024/01/28 11:11:10;;;;;;;7.13;6.43;;;24.20;63.80;;;;;;6147755;28;89151;-62
2024/01/28 11:14:13;;;;;;;7.30;6.60;;;24.20;63.80;;;;;;6152099;28;89460;-62
2024/01/28 11:17:17;;;;;;;7.95;7.15;;;24.20;63.80;;;;;;6150652;28;88381;-62
2024/01/28 11:20:24;;;;;;;7.75;6.78;;;24.20;63.80;;;;;;6148166;28;89188;-62
2024/01/28 11:23:29;;;;;;;7.72;6.93;;;24.20;63.80;;;;;;6149861;28;89089;-62
2024/01/28 11:26:36;;;;;;;8.50;7.30;;;24.20;63.80;;;;;;6156507;28;89988;-63
2024/01/28 11:29:39;;;;;;;8.02;7.15;;;24.30;64.40;;;;;;6140757;28;89218;-62
2024/01/28 11:32:42;;;;;;;7.63;6.93;;;24.20;63.80;;;;;;6141575;28;89058;-62
2024/01/28 11:35:45;;;;;;;8.10;7.30;;;24.30;64.00;;;;;;6150993;28;89089;-62
2024/01/28 11:38:51;;;;;;;7.72;7.00;;;24.20;63.80;;;;;;6157896;28;89209;-62
2024/01/28 11:41:55;;;;;;;8.00;7.20;;;24.30;64.00;;;;;;6151047;28;89064;-62
2024/01/28 11:44:57;;;;;;;8.40;7.60;;;24.20;63.80;;;;;;6155559;28;89099;-62
2024/01/28 11:48:06;;;;;;;8.38;7.53;;;24.30;64.00;;;;;;6157691;28;89671;-62
2024/01/28 11:51:09;;;;;;;8.50;7.65;;;24.30;64.00;;;;;;6144742;28;89054;-62
2024/01/28 11:54:11;;;;;;;8.25;7.43;;;24.30;64.00;;;;;;6141483;28;89013;-62
2024/01/28 11:57:13;;;;;;;8.07;7.28;;;24.30;64.00;;;;;;6161376;28;90584;-62
2024/01/28 12:00:16;;;;;;;8.85;7.90;;;24.30;64.00;;;;;;6149678;28;89143;-62
2024/01/28 12:03:20;;;;;;;8.73;7.82;;;24.30;64.00;;;;;;6150193;28;89124;-62
2024/01/28 12:06:22;;;;;;;8.60;7.70;;;24.30;64.00;;;;;;6150514;28;87983;-62
2024/01/28 12:09:24;;;;;;;8.60;7.80;;;24.30;64.00;;;;;;6154827;28;89030;-62
2024/01/28 12:12:26;;;;;;;8.35;7.55;;;24.30;64.10;;;;;;6153912;28;89065;-62
2024/01/28 12:15:29;;;;;;;8.40;7.60;;;24.30;64.20;;;;;;6150842;28;89170;-62
2024/01/28 12:18:33;;;;;;;8.55;7.75;;;24.30;64.10;;;;;;6148712;28;88098;-62
2024/01/28 12:21:35;;;;;;;8.85;7.95;;;24.30;64.10;;;;;;6145397;28;89336;-62
2024/01/28 12:24:37;;;;;;;8.95;7.70;;;24.30;64.10;;;;;;6143691;28;89680;-62
2024/01/28 12:27:40;;;;;;;8.73;7.82;;;24.30;64.10;;;;;;6146843;28;89972;-62
2024/01/28 12:30:42;;;;;;;9.10;8.20;;;24.30;64.10;;;;;;6143959;28;89293;-62
2024/01/28 12:33:46;;;;;;;8.27;7.47;;;24.30;64.10;;;;;;6161189;28;89207;-62
2024/01/28 12:36:48;;;;;;;8.70;7.80;;;24.30;64.10;;;;;;6162227;28;89175;-62
2024/01/28 12:39:50;;;;;;;8.88;7.97;;;24.30;64.10;;;;;;6153060;28;89508;-62
2024/01/28 12:42:52;;;;;;;8.38;7.60;;;24.30;64.20;;;;;;6138700;28;89172;-62
2024/01/28 12:45:54;;;;;;;8.95;8.05;;;24.30;64.20;;;;;;6138894;28;89101;-62
2024/01/28 12:48:58;;;;;;;10.30;9.05;;;24.30;64.20;;;;;;6157594;28;87288;-62
2024/01/28 12:52:00;;;;;;;9.07;8.18;;;24.30;64.20;;;;;;6148468;28;90874;-62
2024/01/28 12:55:03;;;;;;;9.90;8.65;;;24.30;64.10;;;;;;6151653;28;89096;-62
2024/01/28 12:58:05;;;;;;;10.20;8.45;;;24.30;64.10;;;;;;6156412;28;89924;-62
2024/01/28 13:01:08;;;;;;;9.32;8.38;;;24.30;64.20;;;;;;6154790;28;89692;-61
2024/01/28 13:04:13;;;;;;;8.80;8.00;;;24.30;64.20;;;;;;6149171;28;89124;-62
2024/01/28 13:07:15;;;;;;;9.18;8.23;;;24.30;64.20;;;;;;6147610;28;89101;-62
2024/01/28 13:10:17;;;;;;;9.88;8.60;;;24.30;64.30;;;;;;6151619;28;89119;-62
2024/01/28 13:13:19;;;;;;;10.25;8.88;;;24.40;64.40;;;;;;6154148;28;89170;-61
2024/01/28 13:16:22;;;;;;;9.52;8.52;;;24.30;64.30;;;;;;6154402;28;89089;-62
2024/01/28 13:19:25;;;;;;;9.82;8.63;;;24.30;64.40;;;;;;6155754;28;88216;-62
2024/01/28 13:22:27;;;;;;;9.80;8.80;;;24.30;64.30;;;;;;6150512;28;89128;-62
2024/01/28 13:25:29;;;;;;;10.52;8.60;;;24.30;64.30;;;;;;6143618;28;88006;-62
2024/01/28 13:28:31;;;;;;;9.27;8.27;;;24.30;64.30;;;;;;6149549;28;90053;-62
2024/01/28 13:31:33;;;;;;;10.35;8.80;;;24.30;64.30;;;;;;6156551;28;89066;-62
2024/01/28 13:34:36;;;;;;;9.85;8.30;;;24.40;64.40;;;;;;6150026;28;89034;-62
2024/01/28 13:37:40;;;;;;;9.57;8.27;;;24.30;64.30;;;;;;6157643;28;88984;-62
2024/01/28 13:40:42;;;;;;;9.32;8.30;;;24.30;64.40;;;;;;6154563;28;87852;-62
2024/01/28 13:43:44;;;;;;;9.15;7.75;;;24.40;64.40;;;;;;6151598;28;89173;-62
2024/01/28 13:46:46;;;;;;;8.77;7.88;;;24.40;64.40;;;;;;6153661;28;89241;-61
2024/01/28 13:49:49;;;;;;;10.07;8.27;;;24.40;64.40;;;;;;6154771;28;88384;-62
2024/01/28 13:52:51;;;;;;;11.02;8.60;;;24.40;64.40;;;;;;6143204;28;88056;-62
2024/01/28 13:55:53;;;;;;;10.10;8.30;;;24.30;64.40;;;;;;6156194;28;88338;-62
2024/01/28 13:58:56;;;;;;;10.25;8.25;;;24.40;64.50;;;;;;6137550;28;90101;-62
2024/01/28 14:02:00;;;;;;;9.10;8.10;;;24.40;64.50;;;;;;6147363;28;89059;-62
2024/01/28 14:05:07;;;;;;;8.75;7.68;;;24.30;64.50;;;;;;6153091;28;89862;-63
2024/01/28 14:08:09;;;;;;;9.82;8.38;;;24.40;64.50;;;;;;6146065;28;89118;-62
2024/01/28 14:11:12;;;;;;;10.20;8.18;;;24.40;64.50;;;;;;6143836;28;87939;-62
2024/01/28 14:14:14;;;;;;;9.10;7.88;;;24.30;64.50;;;;;;6148973;28;88868;-62
2024/01/28 14:17:19;;;;;;;8.95;7.78;;;24.30;64.50;;;;;;6142168;28;89100;-62
2024/01/28 14:20:22;;;;;;;10.60;7.75;;;24.40;64.50;;;;;;6147462;28;88521;-62
2024/01/28 14:23:24;;;;;;;8.85;7.35;;;24.40;64.50;;;;;;6153071;28;89124;-62
2024/01/28 14:26:26;;;;;;;10.70;8.10;;;24.40;64.50;;;;;;6152998;28;89155;-62
2024/01/28 14:29:28;;;;;;;9.52;7.68;;;24.40;64.50;;;;;;6140034;28;90364;-62
2024/01/28 14:32:30;;;;;;;9.00;7.60;;;24.30;64.50;;;;;;6155132;28;89285;-62
2024/01/28 14:35:33;;;;;;;10.25;7.50;;;24.30;64.50;;;;;;6156320;28;89111;-62
2024/01/28 14:38:35;;;;;;;9.20;7.38;;;24.40;64.50;;;;;;6145609;28;89375;-62
2024/01/28 14:41:37;;;;;;;8.25;6.78;;;24.40;64.50;;;;;;6156766;28;89081;-62
2024/01/28 14:44:39;;;;;;;8.93;6.90;;;24.40;64.50;;;;;;6153198;28;89065;-62
2024/01/28 14:47:41;;;;;;;8.15;7.20;;;24.30;64.40;;;;;;6151413;28;89078;-62
2024/01/28 14:50:45;;;;;;;9.48;7.15;;;24.40;64.50;;;;;;6157260;28;88388;-63
2024/01/28 14:53:47;;;;;;;9.63;7.20;;;24.30;64.50;;;;;;6150051;28;90857;-63
2024/01/28 14:56:49;;;;;;;7.80;6.68;;;24.40;64.50;;;;;;6156518;28;89024;-63
2024/01/28 14:59:51;;;;;;;8.02;6.57;;;24.40;64.50;;;;;;6152213;28;89218;-62
2024/01/28 15:02:53;;;;;;;8.32;6.53;;;24.30;64.50;;;;;;6154780;28;89213;-62
2024/01/28 15:05:56;;;;;;;7.68;6.40;;;24.30;64.50;;;;;;6150633;28;89118;-62
2024/01/28 15:08:58;;;;;;;8.90;6.68;;;24.30;64.50;;;;;;6161845;28;89060;-62
2024/01/28 15:12:00;;;;;;;8.05;6.55;;;24.30;64.50;;;;;;6152579;28;89062;-63
2024/01/28 15:15:02;;;;;;;9.40;6.70;;;24.40;64.50;;;;;;6138664;28;87960;-62
2024/01/28 15:18:04;;;;;;;8.63;6.60;;;24.40;64.50;;;;;;6148826;28;89233;-62
2024/01/28 15:21:08;;;;;;;7.78;6.22;;;24.30;64.50;;;;;;6155615;28;88907;-62
2024/01/28 15:24:10;;;;;;;8.07;6.63;;;24.40;64.50;;;;;;6148401;28;89479;-62
2024/01/28 15:27:12;;;;;;;7.63;6.07;;;24.30;64.40;;;;;;6155411;28;89035;-62
2024/01/28 15:30:14;;;;;;;7.35;5.95;;;24.40;64.50;;;;;;6159876;28;90014;-62
2024/01/28 15:33:16;;;;;;;6.65;5.63;;;24.40;64.50;;;;;;6154952;28;89364;-62
2024/01/28 15:36:20;;;;;;;6.85;5.88;;;24.40;64.50;;;;;;6152466;28;89162;-62